sensor_id;sensor_type;location;lat;lon;timestamp;pressure;altitude;pressure_sealevel;temperature;humidity
48053;BME280;33824;51.600;5.718;2022-12-16T00:00:45;100838.91;;;-0.15;78.64
48053;BME280;33824;51.600;5.718;2022-12-16T00:03:20;100837.75;;;-0.11;78.74
48053;BME280;33824;51.600;5.718;2022-12-16T00:05:47;100835.75;;;-0.08;78.33
48053;BME280;33824;51.600;5.718;2022-12-16T00:08:12;100839.03;;;-0.04;78.32
48053;BME280;33824;51.600;5.718;2022-12-16T00:10:38;100840.59;;;-0.02;78.35
48053;BME280;33824;51.600;5.718;2022-12-16T00:13:18;100844.06;;;-0.01;78.23
48053;BME280;33824;51.600;5.718;2022-12-16T00:15:46;100843.22;;;-0.02;77.66
48053;BME280;33824;51.600;5.718;2022-12-16T00:18:12;100841.13;;;0.04;78.20
48053;BME280;33824;51.600;5.718;2022-12-16T00:20:52;100840.59;;;-0.02;77.99
48053;BME280;33824;51.600;5.718;2022-12-16T00:23:18;100832.91;;;0.08;77.98
48053;BME280;33824;51.600;5.718;2022-12-16T00:25:45;100833.13;;;0.18;78.30
48053;BME280;33824;51.600;5.718;2022-12-16T00:28:12;100836.53;;;0.31;78.37
48053;BME280;33824;51.600;5.718;2022-12-16T00:30:38;100833.38;;;0.38;78.66
48053;BME280;33824;51.600;5.718;2022-12-16T00:33:04;100841.75;;;0.43;78.45
48053;BME280;33824;51.600;5.718;2022-12-16T00:35:30;100845.94;;;0.46;78.36
48053;BME280;33824;51.600;5.718;2022-12-16T00:37:56;100846.56;;;0.49;78.41
48053;BME280;33824;51.600;5.718;2022-12-16T00:40:22;100846.13;;;0.56;78.23
48053;BME280;33824;51.600;5.718;2022-12-16T00:42:48;100841.00;;;0.54;77.72
48053;BME280;33824;51.600;5.718;2022-12-16T00:45:13;100843.84;;;0.51;77.59
48053;BME280;33824;51.600;5.718;2022-12-16T00:47:39;100841.44;;;0.48;77.32
48053;BME280;33824;51.600;5.718;2022-12-16T00:50:06;100837.97;;;0.47;77.22
48053;BME280;33824;51.600;5.718;2022-12-16T00:52:31;100839.66;;;0.48;77.12
48053;BME280;33824;51.600;5.718;2022-12-16T00:54:57;100835.25;;;0.49;77.47
48053;BME280;33824;51.600;5.718;2022-12-16T00:57:22;100835.03;;;0.52;77.49
48053;BME280;33824;51.600;5.718;2022-12-16T00:59:48;100841.13;;;0.53;77.47
48053;BME280;33824;51.600;5.718;2022-12-16T01:02:14;100836.59;;;0.55;77.21
48053;BME280;33824;51.600;5.718;2022-12-16T01:04:40;100837.66;;;0.52;77.40
48053;BME280;33824;51.600;5.718;2022-12-16T01:07:05;100848.53;;;0.59;76.91
48053;BME280;33824;51.600;5.718;2022-12-16T01:09:31;100846.28;;;0.65;76.84
48053;BME280;33824;51.600;5.718;2022-12-16T01:11:56;100840.00;;;0.68;77.11
48053;BME280;33824;51.600;5.718;2022-12-16T01:14:22;100847.13;;;0.66;76.89
48053;BME280;33824;51.600;5.718;2022-12-16T01:16:47;100841.78;;;0.67;76.94
48053;BME280;33824;51.600;5.718;2022-12-16T01:19:13;100840.00;;;0.68;76.83
48053;BME280;33824;51.600;5.718;2022-12-16T01:21:38;100850.19;;;0.72;77.10
48053;BME280;33824;51.600;5.718;2022-12-16T01:24:04;100852.69;;;0.74;76.78
48053;BME280;33824;51.600;5.718;2022-12-16T01:26:30;100855.06;;;0.77;76.83
48053;BME280;33824;51.600;5.718;2022-12-16T01:28:56;100869.03;;;0.77;76.76
48053;BME280;33824;51.600;5.718;2022-12-16T01:31:23;100876.19;;;0.75;76.70
48053;BME280;33824;51.600;5.718;2022-12-16T01:33:49;100872.53;;;0.65;76.99
48053;BME280;33824;51.600;5.718;2022-12-16T01:36:15;100865.50;;;0.66;76.87
48053;BME280;33824;51.600;5.718;2022-12-16T01:38:42;100874.34;;;0.65;77.03
48053;BME280;33824;51.600;5.718;2022-12-16T01:41:09;100880.31;;;0.67;76.46
48053;BME280;33824;51.600;5.718;2022-12-16T01:43:37;100884.41;;;0.71;77.15
48053;BME280;33824;51.600;5.718;2022-12-16T01:46:17;100889.25;;;0.64;76.74
48053;BME280;33824;51.600;5.718;2022-12-16T01:48:53;100893.72;;;0.75;77.14
48053;BME280;33824;51.600;5.718;2022-12-16T01:51:27;100888.47;;;0.75;76.92
48053;BME280;33824;51.600;5.718;2022-12-16T01:53:58;100888.03;;;0.81;77.12
48053;BME280;33824;51.600;5.718;2022-12-16T01:56:27;100893.28;;;0.81;76.73
48053;BME280;33824;51.600;5.718;2022-12-16T01:58:55;100900.22;;;0.82;76.83
48053;BME280;33824;51.600;5.718;2022-12-16T02:01:21;100899.66;;;0.89;76.61
48053;BME280;33824;51.600;5.718;2022-12-16T02:03:47;100906.69;;;0.89;76.64
48053;BME280;33824;51.600;5.718;2022-12-16T02:06:14;100906.81;;;0.87;76.94
48053;BME280;33824;51.600;5.718;2022-12-16T02:08:40;100909.31;;;0.89;76.86
48053;BME280;33824;51.600;5.718;2022-12-16T02:16:56;100912.88;;;0.64;76.64
48053;BME280;33824;51.600;5.718;2022-12-16T02:19:57;100907.19;;;0.58;76.48
48053;BME280;33824;51.600;5.718;2022-12-16T02:30:37;100922.06;;;0.70;76.98
48053;BME280;33824;51.600;5.718;2022-12-16T02:35:58;100912.88;;;0.64;77.14
48053;BME280;33824;51.600;5.718;2022-12-16T02:41:18;100911.72;;;0.56;77.31
48053;BME280;33824;51.600;5.718;2022-12-16T02:43:52;100924.22;;;0.65;77.33
48053;BME280;33824;51.600;5.718;2022-12-16T02:46:20;100920.19;;;0.72;77.56
48053;BME280;33824;51.600;5.718;2022-12-16T02:48:47;100922.59;;;0.75;77.80
48053;BME280;33824;51.600;5.718;2022-12-16T02:51:14;100920.38;;;0.81;77.95
48053;BME280;33824;51.600;5.718;2022-12-16T02:53:40;100926.22;;;0.85;77.83
48053;BME280;33824;51.600;5.718;2022-12-16T02:58:48;100928.56;;;0.77;77.49
48053;BME280;33824;51.600;5.718;2022-12-16T03:04:15;100930.88;;;0.81;78.01
48053;BME280;33824;51.600;5.718;2022-12-16T03:06:46;100937.66;;;0.84;77.86
48053;BME280;33824;51.600;5.718;2022-12-16T03:09:18;100933.06;;;0.87;78.04
48053;BME280;33824;51.600;5.718;2022-12-16T03:11:47;100933.47;;;0.94;78.19
48053;BME280;33824;51.600;5.718;2022-12-16T03:14:15;100928.91;;;0.96;77.77
48053;BME280;33824;51.600;5.718;2022-12-16T03:16:43;100933.00;;;1.00;78.10
48053;BME280;33824;51.600;5.718;2022-12-16T03:19:11;100934.31;;;0.94;77.77
48053;BME280;33824;51.600;5.718;2022-12-16T03:21:49;100938.41;;;0.86;78.19
48053;BME280;33824;51.600;5.718;2022-12-16T03:24:16;100931.44;;;0.98;78.20
48053;BME280;33824;51.600;5.718;2022-12-16T03:26:55;100940.72;;;0.90;78.22
48053;BME280;33824;51.600;5.718;2022-12-16T03:29:36;100933.22;;;0.97;78.28
48053;BME280;33824;51.600;5.718;2022-12-16T03:32:30;100941.34;;;0.94;78.22
48053;BME280;33824;51.600;5.718;2022-12-16T03:35:01;100933.47;;;0.94;78.10
48053;BME280;33824;51.600;5.718;2022-12-16T03:37:32;100941.97;;;0.85;78.04
48053;BME280;33824;51.600;5.718;2022-12-16T03:40:01;100946.50;;;0.83;78.09
48053;BME280;33824;51.600;5.718;2022-12-16T03:42:28;100945.13;;;0.90;78.78
48053;BME280;33824;51.600;5.718;2022-12-16T03:44:55;100946.81;;;0.91;78.25
48053;BME280;33824;51.600;5.718;2022-12-16T03:47:24;100946.00;;;0.78;78.04
48053;BME280;33824;51.600;5.718;2022-12-16T03:49:50;100956.09;;;0.71;78.74
48053;BME280;33824;51.600;5.718;2022-12-16T03:52:16;100956.19;;;0.70;78.60
48053;BME280;33824;51.600;5.718;2022-12-16T03:54:41;100962.19;;;0.59;78.49
48053;BME280;33824;51.600;5.718;2022-12-16T03:57:07;100957.91;;;0.58;79.15
48053;BME280;33824;51.600;5.718;2022-12-16T03:59:32;100954.84;;;0.64;79.21
48053;BME280;33824;51.600;5.718;2022-12-16T04:01:58;100955.16;;;0.60;79.47
48053;BME280;33824;51.600;5.718;2022-12-16T04:04:24;100959.34;;;0.62;79.58
48053;BME280;33824;51.600;5.718;2022-12-16T04:06:50;100963.34;;;0.68;79.81
48053;BME280;33824;51.600;5.718;2022-12-16T04:09:35;100968.16;;;0.74;79.63
48053;BME280;33824;51.600;5.718;2022-12-16T04:12:01;100971.19;;;0.80;79.73
48053;BME280;33824;51.600;5.718;2022-12-16T04:14:44;100973.19;;;0.77;79.57
48053;BME280;33824;51.600;5.718;2022-12-16T04:17:29;100980.13;;;0.78;79.86
48053;BME280;33824;51.600;5.718;2022-12-16T04:20:17;100986.13;;;0.80;79.59
48053;BME280;33824;51.600;5.718;2022-12-16T04:23:03;100983.25;;;0.83;80.05
48053;BME280;33824;51.600;5.718;2022-12-16T04:25:48;100982.28;;;0.84;79.84
48053;BME280;33824;51.600;5.718;2022-12-16T04:28:14;100987.34;;;0.87;79.91
48053;BME280;33824;51.600;5.718;2022-12-16T04:30:39;100994.06;;;0.91;79.84
48053;BME280;33824;51.600;5.718;2022-12-16T04:33:10;100995.00;;;0.90;79.90
48053;BME280;33824;51.600;5.718;2022-12-16T04:36:08;100997.50;;;0.91;80.24
48053;BME280;33824;51.600;5.718;2022-12-16T04:38:52;100994.69;;;0.94;80.00
48053;BME280;33824;51.600;5.718;2022-12-16T04:41:41;101003.50;;;0.93;79.55
48053;BME280;33824;51.600;5.718;2022-12-16T04:44:25;101011.38;;;0.93;80.60
48053;BME280;33824;51.600;5.718;2022-12-16T04:47:09;101002.44;;;0.96;80.32
48053;BME280;33824;51.600;5.718;2022-12-16T04:49:54;101014.41;;;1.00;80.23
48053;BME280;33824;51.600;5.718;2022-12-16T04:52:38;101016.09;;;0.88;80.36
48053;BME280;33824;51.600;5.718;2022-12-16T04:55:24;101017.38;;;0.83;80.12
48053;BME280;33824;51.600;5.718;2022-12-16T04:58:08;101023.06;;;0.77;80.80
48053;BME280;33824;51.600;5.718;2022-12-16T05:00:52;101022.75;;;0.69;81.62
48053;BME280;33824;51.600;5.718;2022-12-16T05:03:36;101023.72;;;0.68;81.63
48053;BME280;33824;51.600;5.718;2022-12-16T05:06:20;101016.06;;;0.65;81.23
48053;BME280;33824;51.600;5.718;2022-12-16T05:09:06;101019.00;;;0.60;82.24
48053;BME280;33824;51.600;5.718;2022-12-16T05:11:50;101026.44;;;0.66;82.17
48053;BME280;33824;51.600;5.718;2022-12-16T05:14:35;101022.88;;;0.67;82.31
48053;BME280;33824;51.600;5.718;2022-12-16T05:17:20;101037.25;;;0.74;82.20
48053;BME280;33824;51.600;5.718;2022-12-16T05:20:04;101035.13;;;0.79;82.28
48053;BME280;33824;51.600;5.718;2022-12-16T05:22:49;101035.63;;;0.84;82.42
48053;BME280;33824;51.600;5.718;2022-12-16T05:25:33;101040.56;;;0.89;82.52
48053;BME280;33824;51.600;5.718;2022-12-16T05:28:17;101046.34;;;0.94;82.26
48053;BME280;33824;51.600;5.718;2022-12-16T05:31:02;101049.69;;;0.96;82.42
48053;BME280;33824;51.600;5.718;2022-12-16T05:33:47;101049.47;;;0.99;82.60
48053;BME280;33824;51.600;5.718;2022-12-16T05:36:31;101054.00;;;0.97;82.59
48053;BME280;33824;51.600;5.718;2022-12-16T05:39:15;101060.50;;;1.04;82.93
48053;BME280;33824;51.600;5.718;2022-12-16T05:41:59;101057.03;;;1.04;83.26
48053;BME280;33824;51.600;5.718;2022-12-16T05:44:44;101060.19;;;1.09;82.89
48053;BME280;33824;51.600;5.718;2022-12-16T05:47:28;101070.16;;;1.04;82.87
48053;BME280;33824;51.600;5.718;2022-12-16T05:50:13;101074.78;;;1.00;83.25
48053;BME280;33824;51.600;5.718;2022-12-16T05:52:57;101076.88;;;1.08;83.26
48053;BME280;33824;51.600;5.718;2022-12-16T05:55:42;101083.59;;;1.12;83.66
48053;BME280;33824;51.600;5.718;2022-12-16T05:58:27;101079.72;;;1.17;83.67
48053;BME280;33824;51.600;5.718;2022-12-16T06:01:12;101086.00;;;1.15;83.72
48053;BME280;33824;51.600;5.718;2022-12-16T06:03:56;101089.59;;;1.14;83.81
48053;BME280;33824;51.600;5.718;2022-12-16T06:06:41;101087.78;;;1.14;84.02
48053;BME280;33824;51.600;5.718;2022-12-16T06:09:25;101092.09;;;1.15;83.83
48053;BME280;33824;51.600;5.718;2022-12-16T06:12:10;101085.16;;;1.14;84.33
48053;BME280;33824;51.600;5.718;2022-12-16T06:14:54;101098.28;;;1.14;84.46
48053;BME280;33824;51.600;5.718;2022-12-16T06:17:46;101090.13;;;1.06;84.56
48053;BME280;33824;51.600;5.718;2022-12-16T06:20:30;101094.53;;;1.06;84.72
48053;BME280;33824;51.600;5.718;2022-12-16T06:23:15;101092.75;;;1.06;84.91
48053;BME280;33824;51.600;5.718;2022-12-16T06:25:59;101093.78;;;1.04;84.93
48053;BME280;33824;51.600;5.718;2022-12-16T06:28:44;101105.38;;;1.01;84.75
48053;BME280;33824;51.600;5.718;2022-12-16T06:31:27;101090.84;;;0.95;85.04
48053;BME280;33824;51.600;5.718;2022-12-16T06:34:12;101096.22;;;0.94;85.36
48053;BME280;33824;51.600;5.718;2022-12-16T06:36:59;101098.31;;;0.89;84.74
48053;BME280;33824;51.600;5.718;2022-12-16T06:39:43;101104.63;;;0.86;85.35
48053;BME280;33824;51.600;5.718;2022-12-16T06:42:27;101111.25;;;0.79;85.28
48053;BME280;33824;51.600;5.718;2022-12-16T06:45:12;101117.44;;;0.78;85.54
48053;BME280;33824;51.600;5.718;2022-12-16T06:47:56;101122.59;;;0.80;85.53
48053;BME280;33824;51.600;5.718;2022-12-16T06:50:40;101129.13;;;0.87;85.59
48053;BME280;33824;51.600;5.718;2022-12-16T06:53:26;101131.53;;;0.90;85.55
48053;BME280;33824;51.600;5.718;2022-12-16T06:56:10;101127.84;;;0.92;85.75
48053;BME280;33824;51.600;5.718;2022-12-16T06:58:54;101134.34;;;1.00;85.76
48053;BME280;33824;51.600;5.718;2022-12-16T07:01:38;101135.72;;;1.05;85.86
48053;BME280;33824;51.600;5.718;2022-12-16T07:04:23;101142.53;;;1.08;86.02
48053;BME280;33824;51.600;5.718;2022-12-16T07:07:07;101143.69;;;1.16;86.08
48053;BME280;33824;51.600;5.718;2022-12-16T07:09:51;101151.25;;;1.21;85.91
48053;BME280;33824;51.600;5.718;2022-12-16T07:12:35;101162.47;;;1.23;85.84
48053;BME280;33824;51.600;5.718;2022-12-16T07:15:19;101165.63;;;1.28;85.92
48053;BME280;33824;51.600;5.718;2022-12-16T07:18:04;101163.31;;;1.36;85.71
48053;BME280;33824;51.600;5.718;2022-12-16T07:20:48;101170.75;;;1.42;85.75
48053;BME280;33824;51.600;5.718;2022-12-16T07:23:32;101176.63;;;1.45;85.69
48053;BME280;33824;51.600;5.718;2022-12-16T07:26:16;101183.34;;;1.50;85.61
48053;BME280;33824;51.600;5.718;2022-12-16T07:29:01;101185.50;;;1.44;85.19
48053;BME280;33824;51.600;5.718;2022-12-16T07:31:44;101197.34;;;1.50;85.48
48053;BME280;33824;51.600;5.718;2022-12-16T07:34:29;101195.88;;;1.46;85.33
48053;BME280;33824;51.600;5.718;2022-12-16T07:37:13;101208.28;;;1.44;84.89
48053;BME280;33824;51.600;5.718;2022-12-16T07:39:57;101211.84;;;1.43;85.48
48053;BME280;33824;51.600;5.718;2022-12-16T07:42:41;101210.16;;;1.42;85.29
48053;BME280;33824;51.600;5.718;2022-12-16T07:45:26;101212.78;;;1.42;85.33
48053;BME280;33824;51.600;5.718;2022-12-16T07:48:10;101217.56;;;1.37;85.46
48053;BME280;33824;51.600;5.718;2022-12-16T07:50:54;101217.13;;;1.30;85.49
48053;BME280;33824;51.600;5.718;2022-12-16T07:53:40;101218.56;;;1.22;85.86
48053;BME280;33824;51.600;5.718;2022-12-16T07:56:24;101216.91;;;1.21;86.03
48053;BME280;33824;51.600;5.718;2022-12-16T07:59:08;101218.91;;;1.05;86.23
48053;BME280;33824;51.600;5.718;2022-12-16T08:01:53;101227.28;;;0.97;86.49
48053;BME280;33824;51.600;5.718;2022-12-16T08:04:51;101233.06;;;0.89;86.62
48053;BME280;33824;51.600;5.718;2022-12-16T08:07:38;101237.56;;;0.75;87.14
48053;BME280;33824;51.600;5.718;2022-12-16T08:10:22;101245.97;;;0.80;87.10
48053;BME280;33824;51.600;5.718;2022-12-16T08:13:06;101249.22;;;0.83;86.86
48053;BME280;33824;51.600;5.718;2022-12-16T08:15:50;101248.38;;;0.83;86.80
48053;BME280;33824;51.600;5.718;2022-12-16T08:18:35;101259.91;;;0.80;86.59
48053;BME280;33824;51.600;5.718;2022-12-16T08:21:19;101258.97;;;0.81;87.29
48053;BME280;33824;51.600;5.718;2022-12-16T08:24:03;101263.50;;;0.92;87.30
48053;BME280;33824;51.600;5.718;2022-12-16T08:26:47;101271.31;;;0.93;86.98
48053;BME280;33824;51.600;5.718;2022-12-16T08:29:31;101264.91;;;0.98;87.32
48053;BME280;33824;51.600;5.718;2022-12-16T08:32:16;101271.41;;;1.05;86.79
48053;BME280;33824;51.600;5.718;2022-12-16T08:35:01;101278.25;;;1.07;86.42
48053;BME280;33824;51.600;5.718;2022-12-16T08:37:46;101277.09;;;0.99;86.31
48053;BME280;33824;51.600;5.718;2022-12-16T08:40:30;101280.22;;;0.91;85.92
48053;BME280;33824;51.600;5.718;2022-12-16T08:43:15;101280.22;;;0.91;86.18
48053;BME280;33824;51.600;5.718;2022-12-16T08:46:00;101284.97;;;0.99;86.33
48053;BME280;33824;51.600;5.718;2022-12-16T08:48:44;101285.81;;;1.12;86.36
48053;BME280;33824;51.600;5.718;2022-12-16T08:51:28;101290.00;;;1.14;85.75
48053;BME280;33824;51.600;5.718;2022-12-16T08:54:12;101299.38;;;1.18;85.96
48053;BME280;33824;51.600;5.718;2022-12-16T08:56:57;101304.13;;;1.26;85.79
48053;BME280;33824;51.600;5.718;2022-12-16T08:59:41;101305.16;;;1.23;85.73
48053;BME280;33824;51.600;5.718;2022-12-16T09:02:25;101322.38;;;1.15;85.39
48053;BME280;33824;51.600;5.718;2022-12-16T09:05:10;101322.72;;;1.10;85.90
48053;BME280;33824;51.600;5.718;2022-12-16T09:08:02;101316.69;;;1.08;85.40
48053;BME280;33824;51.600;5.718;2022-12-16T09:10:46;101321.72;;;0.99;85.62
48053;BME280;33824;51.600;5.718;2022-12-16T09:13:30;101321.53;;;1.02;85.61
48053;BME280;33824;51.600;5.718;2022-12-16T09:16:14;101327.41;;;1.05;85.74
48053;BME280;33824;51.600;5.718;2022-12-16T09:18:59;101333.59;;;1.04;85.56
48053;BME280;33824;51.600;5.718;2022-12-16T09:21:42;101345.25;;;1.00;85.75
48053;BME280;33824;51.600;5.718;2022-12-16T09:24:27;101348.81;;;0.99;85.43
48053;BME280;33824;51.600;5.718;2022-12-16T09:27:12;101350.84;;;1.08;85.58
48053;BME280;33824;51.600;5.718;2022-12-16T09:29:56;101351.47;;;1.12;85.77
48053;BME280;33824;51.600;5.718;2022-12-16T09:32:42;101354.53;;;1.06;85.21
48053;BME280;33824;51.600;5.718;2022-12-16T09:35:27;101354.38;;;0.94;85.15
48053;BME280;33824;51.600;5.718;2022-12-16T09:38:11;101360.56;;;0.93;85.69
48053;BME280;33824;51.600;5.718;2022-12-16T09:40:55;101366.22;;;0.87;85.65
48053;BME280;33824;51.600;5.718;2022-12-16T09:43:50;101374.59;;;0.80;86.00
48053;BME280;33824;51.600;5.718;2022-12-16T09:46:51;101375.47;;;0.93;85.93
48053;BME280;33824;51.600;5.718;2022-12-16T09:49:49;101378.69;;;1.11;86.33
48053;BME280;33824;51.600;5.718;2022-12-16T09:52:45;101385.63;;;1.12;85.96
48053;BME280;33824;51.600;5.718;2022-12-16T09:55:37;101383.53;;;1.17;85.92
48053;BME280;33824;51.600;5.718;2022-12-16T09:58:25;101379.69;;;1.35;86.45
48053;BME280;33824;51.600;5.718;2022-12-16T10:01:19;101378.38;;;1.55;86.95
48053;BME280;33824;51.600;5.718;2022-12-16T10:04:08;101386.66;;;1.61;86.36
48053;BME280;33824;51.600;5.718;2022-12-16T10:06:57;101392.16;;;1.71;86.48
48053;BME280;33824;51.600;5.718;2022-12-16T10:10:01;101394.88;;;1.69;86.00
48053;BME280;33824;51.600;5.718;2022-12-16T10:16:08;101394.97;;;1.68;86.04
48053;BME280;33824;51.600;5.718;2022-12-16T10:22:08;101411.72;;;1.67;86.20
48053;BME280;33824;51.600;5.718;2022-12-16T10:25:01;101403.72;;;1.68;85.79
48053;BME280;33824;51.600;5.718;2022-12-16T10:27:58;101403.06;;;1.65;85.76
48053;BME280;33824;51.600;5.718;2022-12-16T10:30:44;101409.19;;;1.65;86.16
48053;BME280;33824;51.600;5.718;2022-12-16T10:33:28;101426.09;;;1.61;85.77
48053;BME280;33824;51.600;5.718;2022-12-16T10:36:22;101417.03;;;1.53;85.89
48053;BME280;33824;51.600;5.718;2022-12-16T10:39:28;101423.44;;;1.36;86.25
48053;BME280;33824;51.600;5.718;2022-12-16T10:42:32;101412.91;;;1.36;86.46
48053;BME280;33824;51.600;5.718;2022-12-16T10:45:24;101420.28;;;1.56;86.33
48053;BME280;33824;51.600;5.718;2022-12-16T10:48:10;101408.34;;;1.77;86.70
48053;BME280;33824;51.600;5.718;2022-12-16T10:50:58;101406.56;;;1.78;86.56
48053;BME280;33824;51.600;5.718;2022-12-16T10:53:48;101419.59;;;1.79;86.64
48053;BME280;33824;51.600;5.718;2022-12-16T10:56:48;101417.00;;;2.05;86.42
48053;BME280;33824;51.600;5.718;2022-12-16T10:59:38;101420.44;;;2.30;85.95
48053;BME280;33824;51.600;5.718;2022-12-16T11:02:27;101418.22;;;2.37;85.57
48053;BME280;33824;51.600;5.718;2022-12-16T11:05:28;101413.19;;;2.21;85.49
48053;BME280;33824;51.600;5.718;2022-12-16T11:08:28;101418.88;;;2.28;85.75
48053;BME280;33824;51.600;5.718;2022-12-16T11:11:19;101419.06;;;2.25;85.58
48053;BME280;33824;51.600;5.718;2022-12-16T11:20:18;101431.09;;;1.78;85.85
48053;BME280;33824;51.600;5.718;2022-12-16T11:23:18;101429.19;;;1.80;85.93
48053;BME280;33824;51.600;5.718;2022-12-16T11:26:17;101425.88;;;1.64;86.42
48053;BME280;33824;51.600;5.718;2022-12-16T11:29:03;101438.31;;;1.62;87.31
48053;BME280;33824;51.600;5.718;2022-12-16T11:31:52;101436.41;;;1.52;87.43
48053;BME280;33824;51.600;5.718;2022-12-16T11:34:40;101436.16;;;1.42;87.89
48053;BME280;33824;51.600;5.718;2022-12-16T11:37:27;101435.25;;;1.56;88.38
48053;BME280;33824;51.600;5.718;2022-12-16T11:40:14;101435.38;;;1.67;87.31
48053;BME280;33824;51.600;5.718;2022-12-16T11:43:04;101432.88;;;1.78;87.40
48053;BME280;33824;51.600;5.718;2022-12-16T11:45:50;101435.19;;;1.82;87.49
48053;BME280;33824;51.600;5.718;2022-12-16T11:48:45;101431.28;;;1.63;87.10
48053;BME280;33824;51.600;5.718;2022-12-16T11:51:32;101420.44;;;1.67;86.70
48053;BME280;33824;51.600;5.718;2022-12-16T11:54:24;101427.13;;;1.46;86.56
48053;BME280;33824;51.600;5.718;2022-12-16T11:57:26;101432.16;;;1.36;86.68
48053;BME280;33824;51.600;5.718;2022-12-16T12:00:15;101426.25;;;1.33;86.96
48053;BME280;33824;51.600;5.718;2022-12-16T12:03:05;101422.66;;;1.21;87.45
48053;BME280;33824;51.600;5.718;2022-12-16T12:06:10;101423.66;;;1.19;88.20
48053;BME280;33824;51.600;5.718;2022-12-16T12:09:14;101422.03;;;1.04;89.11
48053;BME280;33824;51.600;5.718;2022-12-16T12:18:13;101427.91;;;1.34;88.96
48053;BME280;33824;51.600;5.718;2022-12-16T12:27:57;101434.22;;;1.83;88.86
48053;BME280;33824;51.600;5.718;2022-12-16T12:30:54;101434.84;;;1.87;88.66
48053;BME280;33824;51.600;5.718;2022-12-16T12:33:59;101430.97;;;1.92;88.20
48053;BME280;33824;51.600;5.718;2022-12-16T12:36:54;101431.50;;;2.10;88.45
48053;BME280;33824;51.600;5.718;2022-12-16T12:39:51;101445.59;;;2.22;88.08
48053;BME280;33824;51.600;5.718;2022-12-16T12:42:44;101444.66;;;2.23;88.05
48053;BME280;33824;51.600;5.718;2022-12-16T12:51:54;101445.06;;;2.55;88.01
48053;BME280;33824;51.600;5.718;2022-12-16T12:54:56;101444.22;;;2.54;88.41
48053;BME280;33824;51.600;5.718;2022-12-16T12:57:46;101455.78;;;2.64;88.10
48053;BME280;33824;51.600;5.718;2022-12-16T13:00:35;101459.44;;;2.74;87.79
48053;BME280;33824;51.600;5.718;2022-12-16T13:06:15;101465.13;;;2.81;87.49
48053;BME280;33824;51.600;5.718;2022-12-16T13:09:00;101477.31;;;2.82;87.53
48053;BME280;33824;51.600;5.718;2022-12-16T13:14:54;101466.75;;;2.95;87.61
48053;BME280;33824;51.600;5.718;2022-12-16T13:20:51;101461.47;;;3.07;87.40
48053;BME280;33824;51.600;5.718;2022-12-16T13:23:38;101464.47;;;3.14;87.38
48053;BME280;33824;51.600;5.718;2022-12-16T13:26:25;101466.66;;;3.20;86.90
48053;BME280;33824;51.600;5.718;2022-12-16T13:29:25;101477.31;;;3.18;86.82
48053;BME280;33824;51.600;5.718;2022-12-16T13:32:21;101472.56;;;3.23;87.29
48053;BME280;33824;51.600;5.718;2022-12-16T13:37:55;101483.19;;;3.34;86.53
48053;BME280;33824;51.600;5.718;2022-12-16T13:41:00;101479.06;;;3.30;86.51
48053;BME280;33824;51.600;5.718;2022-12-16T13:52:47;101479.22;;;3.40;86.35
48053;BME280;33824;51.600;5.718;2022-12-16T13:55:54;101487.28;;;3.38;86.25
48053;BME280;33824;51.600;5.718;2022-12-16T13:58:52;101491.13;;;3.46;86.10
48053;BME280;33824;51.600;5.718;2022-12-16T14:01:50;101493.25;;;3.41;86.01
48053;BME280;33824;51.600;5.718;2022-12-16T14:04:44;101496.19;;;3.49;86.26
48053;BME280;33824;51.600;5.718;2022-12-16T14:07:32;101498.69;;;3.50;86.14
48053;BME280;33824;51.600;5.718;2022-12-16T14:10:34;101506.22;;;3.44;85.91
48053;BME280;33824;51.600;5.718;2022-12-16T14:13:31;101510.53;;;3.45;85.74
48053;BME280;33824;51.600;5.718;2022-12-16T14:22:43;101524.44;;;3.47;85.54
48053;BME280;33824;51.600;5.718;2022-12-16T14:25:30;101518.41;;;3.57;85.53
48053;BME280;33824;51.600;5.718;2022-12-16T14:31:13;101519.13;;;3.59;85.67
48053;BME280;33824;51.600;5.718;2022-12-16T14:34:00;101533.75;;;3.63;85.38
48053;BME280;33824;51.600;5.718;2022-12-16T14:36:45;101531.72;;;3.67;85.15
48053;BME280;33824;51.600;5.718;2022-12-16T14:39:30;101535.94;;;3.69;85.28
48053;BME280;33824;51.600;5.718;2022-12-16T14:42:30;101532.84;;;3.52;84.33
48053;BME280;33824;51.600;5.718;2022-12-16T14:45:26;101546.88;;;3.52;84.29
48053;BME280;33824;51.600;5.718;2022-12-16T14:51:36;101563.88;;;3.48;84.63
48053;BME280;33824;51.600;5.718;2022-12-16T14:54:41;101572.88;;;3.46;84.38
48053;BME280;33824;51.600;5.718;2022-12-16T14:57:28;101570.94;;;3.48;84.55
48053;BME280;33824;51.600;5.718;2022-12-16T15:03:05;101575.38;;;3.47;84.41
48053;BME280;33824;51.600;5.718;2022-12-16T15:05:52;101577.38;;;3.44;84.04
48053;BME280;33824;51.600;5.718;2022-12-16T15:08:48;101586.78;;;3.35;84.31
48053;BME280;33824;51.600;5.718;2022-12-16T15:11:33;101581.72;;;3.45;84.62
48053;BME280;33824;51.600;5.718;2022-12-16T15:14:24;101587.94;;;3.44;84.54
48053;BME280;33824;51.600;5.718;2022-12-16T15:20:05;101583.91;;;3.51;84.50
48053;BME280;33824;51.600;5.718;2022-12-16T15:22:49;101584.88;;;3.50;84.40
48053;BME280;33824;51.600;5.718;2022-12-16T15:25:34;101599.00;;;3.49;84.44
48053;BME280;33824;51.600;5.718;2022-12-16T15:28:36;101599.78;;;3.38;84.10
48053;BME280;33824;51.600;5.718;2022-12-16T15:31:24;101605.94;;;3.13;84.71
48053;BME280;33824;51.600;5.718;2022-12-16T15:37:20;101615.38;;;3.28;84.81
48053;BME280;33824;51.600;5.718;2022-12-16T15:40:19;101619.50;;;3.32;84.43
48053;BME280;33824;51.600;5.718;2022-12-16T15:43:04;101618.00;;;3.41;84.58
48053;BME280;33824;51.600;5.718;2022-12-16T15:45:48;101623.28;;;3.41;84.37
48053;BME280;33824;51.600;5.718;2022-12-16T15:48:35;101620.25;;;3.34;83.78
48053;BME280;33824;51.600;5.718;2022-12-16T15:51:29;101636.59;;;3.27;83.89
48053;BME280;33824;51.600;5.718;2022-12-16T15:54:17;101634.38;;;3.33;84.43
48053;BME280;33824;51.600;5.718;2022-12-16T15:57:02;101642.16;;;3.35;84.22
48053;BME280;33824;51.600;5.718;2022-12-16T15:59:58;101642.91;;;3.24;83.71